createdAt,value
2022-10-19T00:00:38.999Z,0.00
2022-10-19T00:01:39.024Z,0.00
2022-10-19T00:02:38.988Z,0.00
2022-10-19T00:03:39.031Z,0.00
2022-10-19T00:04:38.968Z,0.00
2022-10-19T00:05:38.981Z,0.00
2022-10-19T00:06:38.948Z,0.00
2022-10-19T00:07:38.933Z,0.00
2022-10-19T00:08:38.929Z,0.00
2022-10-19T00:09:38.891Z,0.00
2022-10-19T00:10:38.930Z,0.00
2022-10-19T00:11:46.401Z,0.00
2022-10-19T00:12:38.903Z,0.00
2022-10-19T00:13:38.846Z,0.00
2022-10-19T00:14:38.869Z,0.00
2022-10-19T00:15:38.843Z,0.00
2022-10-19T00:16:38.822Z,0.00
2022-10-19T00:17:38.808Z,0.00
2022-10-19T00:18:38.818Z,0.00
2022-10-19T00:19:38.776Z,0.00
2022-10-19T00:20:38.790Z,0.00
2022-10-19T00:21:38.807Z,0.00
2022-10-19T00:22:38.802Z,0.00
2022-10-19T00:23:38.753Z,0.00
2022-10-19T00:24:38.737Z,0.00
2022-10-19T00:25:38.726Z,0.00
2022-10-19T00:26:38.711Z,0.00
2022-10-19T00:27:38.705Z,0.00
2022-10-19T00:28:38.761Z,0.00
2022-10-19T00:29:38.777Z,0.00
2022-10-19T00:30:38.737Z,0.00
2022-10-19T00:31:38.650Z,0.00
2022-10-19T00:32:38.653Z,0.00
2022-10-19T00:33:38.642Z,0.00
2022-10-19T00:34:38.616Z,0.00
2022-10-19T00:35:38.624Z,0.00
2022-10-19T00:36:38.607Z,0.00
2022-10-19T00:37:38.594Z,0.00
2022-10-19T00:38:38.586Z,0.00
2022-10-19T00:39:38.621Z,0.00
2022-10-19T00:40:38.565Z,0.00
2022-10-19T00:41:38.532Z,0.00
2022-10-19T00:42:38.580Z,0.00
2022-10-19T00:43:38.521Z,0.00
2022-10-19T00:44:38.504Z,0.00
2022-10-19T00:45:38.515Z,0.00
2022-10-19T00:46:38.528Z,0.00
2022-10-19T00:47:38.471Z,0.00
2022-10-19T00:48:38.610Z,0.00
2022-10-19T00:49:38.453Z,0.00
2022-10-19T00:50:38.486Z,0.00
2022-10-19T00:51:44.958Z,0.00
2022-10-19T00:52:38.420Z,0.00
2022-10-19T00:53:38.431Z,0.00
2022-10-19T00:54:38.421Z,0.00
2022-10-19T00:55:38.393Z,0.00
2022-10-19T00:56:38.388Z,0.00
2022-10-19T00:57:38.399Z,0.00
2022-10-19T00:58:38.365Z,0.00
2022-10-19T00:59:38.360Z,0.00
2022-10-19T01:00:38.432Z,0.00
2022-10-19T01:01:38.320Z,0.00
2022-10-19T01:02:38.313Z,0.00
2022-10-19T01:03:38.335Z,0.00
2022-10-19T01:04:38.352Z,0.00
2022-10-19T01:05:38.274Z,0.00
2022-10-19T01:06:38.354Z,0.00
2022-10-19T01:07:38.252Z,0.00
2022-10-19T01:08:38.245Z,0.00
2022-10-19T01:09:38.227Z,0.00
2022-10-19T01:10:38.232Z,0.00
2022-10-19T01:11:38.214Z,0.00
2022-10-19T01:12:38.200Z,0.00
2022-10-19T01:13:38.204Z,0.00
2022-10-19T01:14:38.174Z,0.00
2022-10-19T01:15:38.195Z,0.00
2022-10-19T01:16:38.157Z,0.00
2022-10-19T01:17:38.149Z,0.00
2022-10-19T01:18:38.126Z,0.00
2022-10-19T01:19:38.123Z,0.00
2022-10-19T01:20:38.119Z,0.00
2022-10-19T01:21:38.113Z,0.00
2022-10-19T01:22:38.099Z,0.00
2022-10-19T01:23:38.069Z,0.00
2022-10-19T01:24:40.565Z,0.00
2022-10-19T01:25:38.063Z,0.00
2022-10-19T01:26:38.045Z,0.00
2022-10-19T01:27:38.019Z,0.00
2022-10-19T01:28:38.113Z,0.00
2022-10-19T01:29:38.010Z,0.00
2022-10-19T01:30:37.993Z,0.00
2022-10-19T01:31:44.574Z,0.00
2022-10-19T01:32:38.205Z,0.00
2022-10-19T01:33:37.955Z,0.00
2022-10-19T01:34:37.960Z,0.00
2022-10-19T01:35:37.947Z,0.00
2022-10-19T01:36:37.932Z,0.00
2022-10-19T01:37:37.917Z,0.00
2022-10-19T01:38:37.909Z,0.00
2022-10-19T01:39:37.903Z,0.00
2022-10-19T01:40:37.889Z,0.00
2022-10-19T01:41:37.866Z,0.00
2022-10-19T01:42:37.869Z,0.00
2022-10-19T01:43:37.856Z,0.00
2022-10-19T01:44:37.848Z,0.00
2022-10-19T01:45:37.842Z,0.00
2022-10-19T01:46:37.829Z,0.00
2022-10-19T01:47:37.798Z,0.00
2022-10-19T01:48:37.803Z,0.00
2022-10-19T01:49:37.785Z,0.00
2022-10-19T01:50:37.788Z,0.00
2022-10-19T01:51:37.755Z,0.00
2022-10-19T01:52:37.746Z,0.00
2022-10-19T01:53:37.743Z,0.00
2022-10-19T01:54:37.731Z,0.00
2022-10-19T01:55:37.736Z,0.00
2022-10-19T01:56:37.737Z,0.00
2022-10-19T01:57:37.700Z,0.00
2022-10-19T01:58:37.689Z,0.00
2022-10-19T01:59:37.674Z,0.00
2022-10-19T02:00:37.695Z,0.00
2022-10-19T02:01:37.661Z,0.00
2022-10-19T02:02:37.689Z,0.00
2022-10-19T02:03:37.640Z,0.00
2022-10-19T02:04:37.630Z,0.00
2022-10-19T02:05:37.624Z,0.00
2022-10-19T02:06:37.591Z,0.00
2022-10-19T02:07:37.589Z,0.00
2022-10-19T02:08:37.579Z,0.00
2022-10-19T02:09:37.587Z,0.00
2022-10-19T02:10:37.544Z,0.00
2022-10-19T02:11:37.537Z,0.00
2022-10-19T02:12:37.544Z,0.00
2022-10-19T02:13:37.539Z,0.00
2022-10-19T02:14:37.514Z,0.00
2022-10-19T02:15:37.508Z,0.00
2022-10-19T02:16:37.520Z,0.00
2022-10-19T02:17:37.483Z,0.00
2022-10-19T02:18:37.469Z,0.00
2022-10-19T02:19:37.450Z,0.00
2022-10-19T02:20:37.436Z,0.00
2022-10-19T02:21:37.463Z,0.00
2022-10-19T02:22:37.426Z,0.00
2022-10-19T02:23:37.406Z,0.00
2022-10-19T02:24:37.392Z,0.00
2022-10-19T02:25:37.397Z,0.00
2022-10-19T02:26:37.378Z,0.00
2022-10-19T02:27:37.372Z,0.00
2022-10-19T02:28:37.374Z,0.00
2022-10-19T02:29:37.369Z,0.00
2022-10-19T02:30:37.337Z,0.00
2022-10-19T02:31:37.369Z,0.00
2022-10-19T02:32:37.333Z,0.00
2022-10-19T02:33:37.350Z,0.00
2022-10-19T02:34:37.294Z,0.00
2022-10-19T02:35:37.274Z,0.00
2022-10-19T02:36:37.280Z,0.00
2022-10-19T02:37:37.281Z,0.00
2022-10-19T02:38:37.238Z,0.00
2022-10-19T02:39:37.225Z,0.00
2022-10-19T02:40:37.227Z,0.00
2022-10-19T02:41:37.223Z,0.00
2022-10-19T02:42:37.292Z,0.00
2022-10-19T02:43:37.185Z,0.00
2022-10-19T02:44:37.190Z,0.00
2022-10-19T02:45:37.177Z,0.00
2022-10-19T02:46:37.197Z,0.00
2022-10-19T02:47:37.156Z,0.00
2022-10-19T02:48:37.129Z,0.00
2022-10-19T02:49:37.125Z,0.00
2022-10-19T02:50:37.124Z,0.00
2022-10-19T02:51:37.091Z,0.00
2022-10-19T02:52:37.111Z,0.00
2022-10-19T02:53:37.078Z,0.00
2022-10-19T02:54:37.071Z,0.00
2022-10-19T02:55:37.072Z,0.00
2022-10-19T02:56:37.051Z,0.00
2022-10-19T02:57:37.364Z,0.00
2022-10-19T02:58:37.012Z,0.00
2022-10-19T02:59:37.012Z,0.00
2022-10-19T03:00:37.072Z,0.00
2022-10-19T03:01:37.005Z,0.00
2022-10-19T03:02:36.978Z,0.00
2022-10-19T03:03:36.972Z,0.00
2022-10-19T03:04:37.038Z,0.00
2022-10-19T03:05:36.953Z,0.00
2022-10-19T03:06:36.936Z,0.00
2022-10-19T03:07:37.175Z,0.00
2022-10-19T03:08:36.901Z,0.00
2022-10-19T03:09:36.887Z,0.00
2022-10-19T03:10:36.880Z,0.00
2022-10-19T03:11:36.898Z,0.00
2022-10-19T03:12:36.858Z,0.00
2022-10-19T03:13:36.870Z,0.00
2022-10-19T03:14:36.847Z,0.00
2022-10-19T03:15:36.846Z,0.00
2022-10-19T03:16:36.826Z,0.00
2022-10-19T03:17:37.249Z,0.00
2022-10-19T03:18:36.821Z,0.00
2022-10-19T03:19:36.838Z,0.00
2022-10-19T03:20:36.777Z,0.00
2022-10-19T03:21:36.765Z,0.00
2022-10-19T03:22:36.760Z,0.00
2022-10-19T03:23:36.744Z,0.00
2022-10-19T03:24:36.735Z,0.00
2022-10-19T03:25:36.722Z,0.00
2022-10-19T03:26:36.717Z,0.00
2022-10-19T03:27:37.004Z,0.00
2022-10-19T03:28:36.706Z,0.00
2022-10-19T03:29:36.676Z,0.00
2022-10-19T03:30:36.669Z,0.00
2022-10-19T03:31:36.646Z,0.00
2022-10-19T03:32:36.645Z,0.00
2022-10-19T03:33:36.621Z,0.00
2022-10-19T03:34:36.632Z,0.00
2022-10-19T03:35:36.667Z,0.00
2022-10-19T03:36:36.590Z,0.00
2022-10-19T03:37:36.967Z,0.00
2022-10-19T03:38:36.567Z,0.00
2022-10-19T03:39:36.566Z,0.00
2022-10-19T03:40:36.572Z,0.00
2022-10-19T03:41:36.533Z,0.00
2022-10-19T03:42:36.522Z,0.00
2022-10-19T03:43:36.540Z,0.00
2022-10-19T03:44:36.500Z,0.00
2022-10-19T03:45:36.512Z,0.00
2022-10-19T03:46:36.498Z,0.00
2022-10-19T03:47:36.804Z,0.00
2022-10-19T03:48:36.463Z,0.00
2022-10-19T03:49:38.147Z,0.00
2022-10-19T03:50:36.450Z,0.00
2022-10-19T03:51:36.430Z,0.00
2022-10-19T03:52:36.453Z,0.00
2022-10-19T03:53:36.407Z,0.00
2022-10-19T03:54:36.407Z,0.00
2022-10-19T03:55:36.400Z,0.00
2022-10-19T03:56:36.387Z,0.00
2022-10-19T03:57:36.660Z,0.00
2022-10-19T03:58:36.348Z,0.00
2022-10-19T03:59:36.334Z,0.00
2022-10-19T04:00:36.330Z,0.00
2022-10-19T04:01:36.343Z,0.00
2022-10-19T04:02:36.300Z,0.00
2022-10-19T04:03:23.583Z,0.00
2022-10-19T04:04:24.544Z,0.00
2022-10-19T04:05:24.544Z,0.00
2022-10-19T04:06:24.590Z,0.00
2022-10-19T04:07:24.513Z,0.00
2022-10-19T04:08:24.507Z,0.00
2022-10-19T04:09:24.514Z,0.00
2022-10-19T04:10:24.493Z,0.00
2022-10-19T04:11:24.476Z,0.00
2022-10-19T04:12:24.462Z,0.00
2022-10-19T04:13:24.435Z,0.00
2022-10-19T04:14:32.862Z,0.00
2022-10-19T04:15:24.434Z,0.00
2022-10-19T04:16:24.423Z,0.00
2022-10-19T04:17:24.409Z,0.00
2022-10-19T04:18:24.383Z,0.00
2022-10-19T04:19:24.420Z,0.00
2022-10-19T04:20:24.383Z,0.00
2022-10-19T04:21:24.385Z,0.00
2022-10-19T04:22:24.350Z,0.00
2022-10-19T04:23:31.151Z,0.00
2022-10-19T04:24:24.356Z,0.00
2022-10-19T04:25:24.304Z,0.00
2022-10-19T04:26:24.296Z,0.00
2022-10-19T04:27:24.290Z,0.00
2022-10-19T04:28:24.302Z,0.00
2022-10-19T04:29:26.487Z,0.00
2022-10-19T04:30:24.271Z,0.00
2022-10-19T04:31:24.256Z,0.00
2022-10-19T04:32:24.226Z,0.00
2022-10-19T04:33:24.237Z,0.00
2022-10-19T04:34:24.244Z,0.00
2022-10-19T04:35:24.206Z,0.00
2022-10-19T04:36:24.209Z,0.00
2022-10-19T04:37:24.234Z,0.00
2022-10-19T04:38:24.178Z,0.00
2022-10-19T04:39:24.168Z,0.00
2022-10-19T04:40:24.162Z,0.00
2022-10-19T04:41:24.144Z,0.00
2022-10-19T04:42:24.114Z,0.00
2022-10-19T04:43:24.115Z,0.00
2022-10-19T04:45:24.102Z,0.00
2022-10-19T04:46:24.089Z,0.00
2022-10-19T04:47:24.078Z,0.00
2022-10-19T04:48:24.049Z,0.00
2022-10-19T04:49:24.046Z,0.00
2022-10-19T04:50:24.027Z,0.00
2022-10-19T04:51:24.032Z,0.00
2022-10-19T04:52:24.019Z,0.00
2022-10-19T04:54:23.991Z,0.00
2022-10-19T04:55:23.979Z,0.00
2022-10-19T04:56:24.001Z,0.00
2022-10-19T04:57:23.967Z,0.00
2022-10-19T04:58:23.940Z,0.00
2022-10-19T04:59:23.944Z,0.00
2022-10-19T05:00:23.919Z,0.00
2022-10-19T05:01:23.966Z,0.00
2022-10-19T05:02:23.900Z,0.00
2022-10-19T05:03:23.898Z,0.00
2022-10-19T05:04:23.880Z,0.00
2022-10-19T05:05:23.884Z,0.00
2022-10-19T05:06:23.858Z,0.00
2022-10-19T05:07:23.877Z,0.00
2022-10-19T05:08:23.887Z,0.00
2022-10-19T05:09:23.826Z,0.00
2022-10-19T05:10:23.835Z,0.00
2022-10-19T05:11:23.808Z,0.00
2022-10-19T05:12:23.861Z,0.00
2022-10-19T05:13:23.778Z,0.00
2022-10-19T05:14:23.856Z,0.00
2022-10-19T05:15:23.771Z,0.00
2022-10-19T05:16:23.773Z,0.00
2022-10-19T05:17:23.769Z,0.00
2022-10-19T05:18:23.715Z,0.00
2022-10-19T05:19:23.748Z,0.00
2022-10-19T05:20:23.711Z,0.00
2022-10-19T05:21:23.715Z,0.00
2022-10-19T05:22:23.676Z,0.00
2022-10-19T05:23:23.723Z,0.00
2022-10-19T05:24:23.657Z,0.00
2022-10-19T05:25:23.645Z,0.00
2022-10-19T05:26:23.669Z,0.00
2022-10-19T05:27:23.618Z,0.00
2022-10-19T05:28:23.674Z,4.00
2022-10-19T05:29:23.598Z,0.00
2022-10-19T05:30:23.618Z,0.00
2022-10-19T05:31:22.582Z,4.00
2022-10-19T05:32:23.587Z,0.00
2022-10-19T05:33:23.567Z,4.00
2022-10-19T05:34:23.549Z,4.00
2022-10-19T05:35:23.545Z,4.00
2022-10-19T05:36:23.554Z,4.00
2022-10-19T05:37:23.568Z,8.00
2022-10-19T05:38:23.495Z,8.00
2022-10-19T05:40:12.498Z,12.00
2022-10-19T05:41:13.430Z,12.00
2022-10-19T05:42:13.431Z,16.00
2022-10-19T05:43:19.940Z,20.00
2022-10-19T05:44:13.419Z,24.00
2022-10-19T05:45:13.407Z,24.00
2022-10-19T05:46:13.378Z,32.00
2022-10-19T05:47:13.370Z,36.00
2022-10-19T05:48:13.567Z,40.00
2022-10-19T05:49:13.962Z,48.00
2022-10-19T05:50:13.332Z,52.00
2022-10-19T05:51:13.329Z,64.00
2022-10-19T05:52:13.333Z,72.00
2022-10-19T05:53:13.299Z,88.00
2022-10-19T05:54:13.276Z,104.00
2022-10-19T05:55:13.299Z,116.00
2022-10-19T05:56:14.792Z,128.00
2022-10-19T05:57:13.265Z,140.00
2022-10-19T05:58:14.368Z,148.00
2022-10-19T05:59:13.288Z,156.00
2022-10-19T06:00:13.999Z,172.00
2022-10-19T06:01:13.994Z,188.00
2022-10-19T06:02:14.894Z,200.00
2022-10-19T06:03:13.956Z,212.00
2022-10-19T06:04:14.024Z,220.00
2022-10-19T06:05:13.953Z,236.00
2022-10-19T06:06:14.524Z,252.00
2022-10-19T06:07:13.259Z,280.00
2022-10-19T06:08:13.128Z,308.00
2022-10-19T06:09:14.190Z,344.00
2022-10-19T06:10:14.557Z,380.00
2022-10-19T06:11:13.993Z,424.00
2022-10-19T06:12:14.868Z,436.00
2022-10-19T06:13:13.121Z,464.00
2022-10-19T06:14:21.894Z,500.00
2022-10-19T06:15:13.066Z,512.00
2022-10-19T06:16:15.255Z,556.00
2022-10-19T06:17:13.058Z,604.00
2022-10-19T06:18:13.055Z,628.00
2022-10-19T06:19:13.013Z,648.00
2022-10-19T06:20:12.994Z,664.00
2022-10-19T06:21:13.006Z,692.00
2022-10-19T06:22:13.961Z,700.00
2022-10-19T06:23:12.994Z,720.00
2022-10-19T06:24:14.677Z,776.00
2022-10-19T06:25:16.570Z,776.00
2022-10-19T06:26:14.336Z,812.00
2022-10-19T06:27:12.998Z,836.00
2022-10-19T06:28:12.952Z,864.00
2022-10-19T06:29:12.904Z,864.00
2022-10-19T06:30:13.084Z,920.00
2022-10-19T06:31:12.889Z,892.00
2022-10-19T06:32:12.875Z,900.00
2022-10-19T06:33:13.351Z,900.00
2022-10-19T06:34:12.942Z,924.00
2022-10-19T06:35:13.221Z,924.00
2022-10-19T06:36:12.925Z,936.00
2022-10-19T06:37:13.504Z,996.00
2022-10-19T06:38:13.455Z,1000.00
2022-10-19T06:39:12.787Z,1048.00
2022-10-19T06:40:12.854Z,1048.00
2022-10-19T06:41:12.872Z,1204.00
2022-10-19T06:42:12.991Z,1296.00
2022-10-19T06:43:12.778Z,1560.00
2022-10-19T06:44:12.746Z,1416.00
2022-10-19T06:45:12.711Z,1544.00
2022-10-19T06:46:12.941Z,1552.00
2022-10-19T06:47:12.837Z,1468.00
2022-10-19T06:48:12.684Z,1656.00
2022-10-19T06:49:12.686Z,1724.00
2022-10-19T06:50:12.677Z,1892.00
2022-10-19T06:51:12.663Z,2048.00
2022-10-19T06:52:12.664Z,1876.00
2022-10-19T06:53:12.628Z,2140.00
2022-10-19T06:54:12.661Z,1960.00
2022-10-19T06:55:13.478Z,2272.00
2022-10-19T06:56:12.613Z,2096.00
2022-10-19T06:57:12.707Z,2184.00
2022-10-19T06:58:12.598Z,2172.00
2022-10-19T06:59:13.042Z,2364.00
2022-10-19T07:00:12.578Z,2280.00
2022-10-19T07:01:16.814Z,2472.00
2022-10-19T07:02:12.521Z,2412.00
2022-10-19T07:03:12.542Z,2212.00
2022-10-19T07:04:12.552Z,2456.00
2022-10-19T07:05:12.506Z,2396.00
2022-10-19T07:06:12.473Z,2860.00
2022-10-19T07:07:13.398Z,2536.00
2022-10-19T07:08:12.532Z,3252.00
2022-10-19T07:09:12.452Z,3180.00
2022-10-19T07:10:12.445Z,3628.00
2022-10-19T07:11:12.639Z,4292.00
2022-10-19T07:12:12.502Z,3880.00
2022-10-19T07:13:15.436Z,3868.00
2022-10-19T07:14:16.987Z,3504.00
2022-10-19T07:15:12.391Z,3660.00
2022-10-19T07:16:17.536Z,3780.00
2022-10-19T07:17:12.997Z,3780.00
2022-10-19T07:18:14.854Z,3360.00
2022-10-19T07:19:18.704Z,3684.00
2022-10-19T07:20:12.988Z,3500.00
2022-10-19T07:21:14.139Z,3112.00
2022-10-19T07:22:20.392Z,3216.00
2022-10-19T07:23:16.171Z,3692.00
2022-10-19T07:24:12.286Z,4100.00
2022-10-19T07:25:12.326Z,3528.00
2022-10-19T07:26:12.277Z,3504.00
2022-10-19T07:27:13.316Z,3456.00
2022-10-19T07:28:12.458Z,3588.00
2022-10-19T07:29:13.498Z,3524.00
2022-10-19T07:30:12.501Z,3260.00
2022-10-19T07:31:13.712Z,3432.00
2022-10-19T07:32:12.227Z,3168.00
2022-10-19T07:33:15.189Z,3292.00
2022-10-19T07:34:12.472Z,3584.00
2022-10-19T07:35:12.158Z,4804.00
2022-10-19T07:36:12.141Z,3660.00
2022-10-19T07:37:12.146Z,3812.00
2022-10-19T07:38:12.120Z,4284.00
2022-10-19T07:39:12.118Z,4032.00
2022-10-19T07:40:12.097Z,4136.00
2022-10-19T07:41:12.111Z,4080.00
2022-10-19T07:42:12.155Z,3992.00
2022-10-19T07:44:09.019Z,3932.00
2022-10-19T07:45:08.679Z,4536.00
2022-10-19T07:46:08.663Z,4916.00
2022-10-19T07:47:08.645Z,4980.00
2022-10-19T07:48:08.634Z,5592.00
2022-10-19T07:49:08.651Z,5540.00
2022-10-19T07:50:08.620Z,5424.00
2022-10-19T07:51:08.605Z,7504.00
2022-10-19T07:52:08.588Z,7552.00
2022-10-19T07:53:08.571Z,7148.00
2022-10-19T07:54:08.566Z,7196.00
2022-10-19T07:55:08.556Z,7408.00
2022-10-19T07:56:08.555Z,7732.00
2022-10-19T07:57:08.547Z,8468.00
2022-10-19T07:58:08.765Z,7764.00
2022-10-19T07:59:08.558Z,8536.00
2022-10-19T08:00:08.507Z,6696.00
2022-10-19T08:01:08.503Z,5848.00
2022-10-19T08:02:08.511Z,5652.00
2022-10-19T08:05:11.602Z,5760.00
2022-10-19T08:06:08.427Z,6884.00
2022-10-19T08:07:08.437Z,5308.00
2022-10-19T08:08:08.399Z,5788.00
2022-10-19T08:09:08.650Z,5768.00
2022-10-19T08:10:08.391Z,5572.00
2022-10-19T08:11:08.378Z,5804.00
2022-10-19T08:12:13.850Z,6064.00
2022-10-19T08:13:08.360Z,5884.00
2022-10-19T08:14:08.589Z,5772.00
2022-10-19T08:15:09.766Z,7292.00
2022-10-19T08:16:08.319Z,6328.00
2022-10-19T08:17:08.554Z,6608.00
2022-10-19T08:18:08.287Z,7796.00
2022-10-19T08:19:08.737Z,7088.00
2022-10-19T08:20:08.285Z,6012.00
2022-10-19T08:21:09.135Z,6356.00
2022-10-19T08:22:08.246Z,5952.00
2022-10-19T08:23:08.449Z,6088.00
2022-10-19T08:24:08.291Z,6828.00
2022-10-19T08:25:08.219Z,6256.00
2022-10-19T08:26:09.231Z,6732.00
2022-10-19T08:27:08.219Z,6796.00
2022-10-19T08:28:08.180Z,6364.00
2022-10-19T08:29:11.786Z,6428.00
2022-10-19T08:30:08.350Z,6300.00
2022-10-19T08:31:11.161Z,6284.00
2022-10-19T08:32:11.863Z,6360.00
2022-10-19T08:33:08.129Z,6624.00
2022-10-19T08:34:08.151Z,6716.00
2022-10-19T08:35:10.685Z,6808.00
2022-10-19T08:36:08.295Z,6808.00
2022-10-19T08:37:19.754Z,6856.00
2022-10-19T08:38:08.285Z,6852.00
2022-10-19T08:39:08.072Z,7024.00
2022-10-19T08:40:08.632Z,7012.00
2022-10-19T08:41:08.043Z,6972.00
2022-10-19T08:42:08.024Z,7040.00
2022-10-19T08:43:08.058Z,7008.00
2022-10-19T08:44:10.162Z,7508.00
2022-10-19T08:45:08.711Z,7476.00
2022-10-19T08:46:07.988Z,7592.00
2022-10-19T08:47:08.727Z,7756.00
2022-10-19T08:48:07.962Z,7748.00
2022-10-19T08:49:07.970Z,7808.00
2022-10-19T08:50:07.940Z,7936.00
2022-10-19T08:51:07.936Z,8116.00
2022-10-19T08:52:07.908Z,8276.00
2022-10-19T08:53:07.931Z,8376.00
2022-10-19T08:54:07.896Z,8536.00
2022-10-19T08:55:08.089Z,8748.00
2022-10-19T08:56:07.869Z,8856.00
2022-10-19T08:57:07.961Z,9100.00
2022-10-19T08:58:08.515Z,8972.00
2022-10-19T08:59:07.851Z,9208.00
2022-10-19T09:00:07.841Z,9296.00
2022-10-19T09:01:07.806Z,9496.00
2022-10-19T09:02:07.808Z,9536.00
2022-10-19T09:03:07.783Z,9788.00
2022-10-19T09:04:17.719Z,9912.00
2022-10-19T09:05:10.658Z,9872.00
2022-10-19T09:06:08.853Z,10172.00
2022-10-19T09:07:09.853Z,10352.00
2022-10-19T09:08:07.741Z,10272.00
2022-10-19T09:09:08.494Z,10472.00
2022-10-19T09:10:07.708Z,10608.00
2022-10-19T09:11:07.729Z,10804.00
2022-10-19T09:12:08.610Z,10976.00
2022-10-19T09:13:07.683Z,11276.00
2022-10-19T09:14:07.667Z,11576.00
2022-10-19T09:15:07.641Z,11628.00
2022-10-19T09:16:07.697Z,11836.00
2022-10-19T09:17:07.701Z,11856.00
2022-10-19T09:18:07.672Z,12088.00
2022-10-19T09:19:07.616Z,12400.00
2022-10-19T09:20:07.598Z,12520.00
2022-10-19T09:21:07.592Z,12672.00
2022-10-19T09:22:07.587Z,12552.00
2022-10-19T09:23:14.149Z,12372.00
2022-10-19T09:24:07.576Z,12564.00
2022-10-19T09:25:07.577Z,12648.00
2022-10-19T09:26:07.776Z,12996.00
2022-10-19T09:27:07.516Z,13096.00
2022-10-19T09:28:07.773Z,13472.00
2022-10-19T09:29:07.510Z,13996.00
2022-10-19T09:30:08.176Z,14076.00
2022-10-19T09:31:09.089Z,14120.00
2022-10-19T09:32:07.459Z,14364.00
2022-10-19T09:33:09.120Z,14676.00
2022-10-19T09:34:08.817Z,14964.00
2022-10-19T09:35:07.654Z,15144.00
2022-10-19T09:36:07.428Z,15796.00
2022-10-19T09:37:07.439Z,16384.00
2022-10-19T09:38:07.390Z,16960.00
2022-10-19T09:39:07.893Z,17440.00
2022-10-19T09:40:07.412Z,17120.00
2022-10-19T09:41:07.692Z,17408.00
2022-10-19T09:42:08.670Z,17216.00
2022-10-19T09:43:07.338Z,17312.00
2022-10-19T09:44:10.403Z,17632.00
2022-10-19T09:45:09.044Z,17664.00
2022-10-19T09:46:17.946Z,18176.00
2022-10-19T09:47:10.207Z,18720.00
2022-10-19T09:48:12.198Z,19200.00
2022-10-19T09:49:07.385Z,19552.00
2022-10-19T09:50:08.276Z,20064.00
2022-10-19T09:51:07.471Z,20160.00
2022-10-19T09:52:10.765Z,19616.00
2022-10-19T09:53:08.552Z,20192.00
2022-10-19T09:54:07.217Z,20064.00
2022-10-19T09:55:08.204Z,20640.00
2022-10-19T09:56:07.449Z,20416.00
2022-10-19T09:57:07.188Z,19264.00
2022-10-19T09:58:07.464Z,17984.00
2022-10-19T09:59:07.693Z,17472.00
2022-10-19T10:00:16.150Z,17632.00
2022-10-19T10:01:16.264Z,17792.00
2022-10-19T10:02:07.130Z,17888.00
2022-10-19T10:03:07.119Z,17984.00
2022-10-19T10:04:07.987Z,18496.00
2022-10-19T10:05:09.920Z,18592.00
2022-10-19T10:06:08.617Z,18560.00
2022-10-19T10:07:08.617Z,18816.00
2022-10-19T10:08:07.849Z,18912.00
2022-10-19T10:09:07.090Z,19040.00
2022-10-19T10:10:08.142Z,19168.00
2022-10-19T10:11:07.037Z,19520.00
2022-10-19T10:12:07.026Z,19648.00
2022-10-19T10:13:07.210Z,19488.00
2022-10-19T10:14:09.835Z,19648.00
2022-10-19T10:15:07.046Z,19200.00
2022-10-19T10:16:09.665Z,19552.00
2022-10-19T10:17:07.810Z,20128.00
2022-10-19T10:18:06.964Z,20768.00
2022-10-19T10:19:07.136Z,20896.00
2022-10-19T10:20:06.938Z,21312.00
2022-10-19T10:21:07.292Z,22688.00
2022-10-19T10:22:07.712Z,23648.00
2022-10-19T10:23:06.898Z,24800.00
2022-10-19T10:24:06.916Z,25920.00
2022-10-19T10:25:10.226Z,27456.00
2022-10-19T10:26:06.858Z,28992.00
2022-10-19T10:27:07.709Z,29440.00
2022-10-19T10:28:07.042Z,31520.00
2022-10-19T10:29:06.826Z,32672.00
2022-10-19T10:30:06.832Z,33056.00
2022-10-19T10:31:06.808Z,33536.00
2022-10-19T10:32:06.803Z,32960.00
2022-10-19T10:33:20.521Z,35200.00
2022-10-19T10:34:16.564Z,37120.00
2022-10-19T10:35:07.004Z,38688.00
2022-10-19T10:36:06.967Z,39872.00
2022-10-19T10:37:06.763Z,40384.00
2022-10-19T10:38:10.413Z,41184.00
2022-10-19T10:39:06.875Z,42336.00
2022-10-19T10:40:06.709Z,42880.00
2022-10-19T10:41:06.905Z,42912.00
2022-10-19T10:42:06.694Z,44352.00
2022-10-19T10:43:08.371Z,44928.00
2022-10-19T10:44:07.869Z,45280.00
2022-10-19T10:45:06.661Z,48096.00
2022-10-19T10:46:06.653Z,51008.00
2022-10-19T10:47:08.283Z,50848.00
2022-10-19T10:49:06.661Z,47776.00
2022-10-19T10:50:06.630Z,52672.00
2022-10-19T10:51:06.821Z,55712.00
2022-10-19T10:52:08.067Z,54240.00
2022-10-19T10:53:06.577Z,54144.00
2022-10-19T10:54:06.580Z,51168.00
2022-10-19T10:55:06.593Z,50528.00
2022-10-19T10:56:06.754Z,49728.00
2022-10-19T10:57:06.882Z,48544.00
2022-10-19T10:58:07.643Z,45056.00
2022-10-19T10:59:06.730Z,43648.00
2022-10-19T11:00:06.496Z,43168.00
2022-10-19T11:01:07.645Z,42720.00
2022-10-19T11:02:07.564Z,42944.00
2022-10-19T11:03:06.508Z,42496.00
2022-10-19T11:04:06.460Z,40608.00
2022-10-19T11:05:06.430Z,38624.00
2022-10-19T11:06:07.210Z,38880.00
2022-10-19T11:07:06.456Z,38496.00
2022-10-19T11:08:14.592Z,36352.00
2022-10-19T11:09:07.388Z,35264.00
2022-10-19T11:10:06.441Z,35648.00
2022-10-19T11:11:06.374Z,35264.00
2022-10-19T11:12:06.377Z,32832.00
2022-10-19T11:13:06.351Z,32672.00
2022-10-19T11:14:06.356Z,32608.00
2022-10-19T11:15:06.346Z,31488.00
2022-10-19T11:16:06.312Z,30432.00
2022-10-19T11:17:06.307Z,27616.00
2022-10-19T11:18:06.287Z,27712.00
2022-10-19T11:19:06.390Z,27104.00
2022-10-19T11:20:06.276Z,25920.00
2022-10-19T11:21:06.256Z,27296.00
2022-10-19T11:22:06.294Z,25920.00
2022-10-19T11:23:06.241Z,25696.00
2022-10-19T11:24:11.457Z,26016.00
2022-10-19T11:25:06.254Z,25600.00
2022-10-19T11:26:06.243Z,25376.00
2022-10-19T11:27:06.220Z,25728.00
2022-10-19T11:28:06.183Z,25504.00
2022-10-19T11:29:06.184Z,25088.00
2022-10-19T11:30:07.540Z,25536.00
2022-10-19T11:31:06.597Z,24960.00
2022-10-19T11:32:06.158Z,25248.00
2022-10-19T11:33:06.144Z,25600.00
2022-10-19T11:34:06.131Z,26368.00
2022-10-19T11:35:06.643Z,26368.00
2022-10-19T11:36:07.483Z,26144.00
2022-10-19T11:37:06.332Z,26080.00
2022-10-19T11:38:19.833Z,26144.00
2022-10-19T11:39:06.297Z,26528.00
2022-10-19T11:40:06.106Z,25856.00
2022-10-19T11:41:17.319Z,25440.00
2022-10-19T11:42:07.163Z,25344.00
2022-10-19T11:43:06.939Z,24192.00
2022-10-19T11:44:11.059Z,24512.00
2022-10-19T11:45:06.727Z,23872.00
2022-10-19T11:46:06.057Z,24352.00
2022-10-19T11:47:06.233Z,24096.00
2022-10-19T11:48:08.721Z,24352.00
2022-10-19T11:49:05.993Z,23968.00
2022-10-19T11:50:06.867Z,23584.00
2022-10-19T11:51:17.333Z,23648.00
2022-10-19T11:52:05.942Z,22592.00
2022-10-19T11:53:05.942Z,22976.00
2022-10-19T11:54:12.398Z,22528.00
2022-10-19T11:55:05.900Z,22624.00
2022-10-19T11:56:05.906Z,22592.00
2022-10-19T11:57:10.543Z,22912.00
2022-10-19T11:58:05.903Z,23456.00
2022-10-19T11:59:05.921Z,24192.00
2022-10-19T12:00:14.422Z,24448.00
2022-10-19T12:01:05.877Z,24160.00
2022-10-19T12:02:05.941Z,23680.00
2022-10-19T12:03:06.958Z,23936.00
2022-10-19T12:04:05.810Z,24672.00
2022-10-19T12:05:06.210Z,24320.00
2022-10-19T12:06:06.165Z,23616.00
2022-10-19T12:07:05.793Z,23200.00
2022-10-19T12:08:05.838Z,22592.00
2022-10-19T12:09:05.814Z,21056.00
2022-10-19T12:10:06.040Z,21056.00
2022-10-19T12:11:05.746Z,19872.00
2022-10-19T12:12:06.663Z,20416.00
2022-10-19T12:13:05.732Z,21440.00
2022-10-19T12:14:05.745Z,21984.00
2022-10-19T12:15:05.949Z,21792.00
2022-10-19T12:16:06.236Z,21792.00
2022-10-19T12:17:06.326Z,21376.00
2022-10-19T12:18:05.704Z,21824.00
2022-10-19T12:19:05.691Z,21856.00
2022-10-19T12:20:05.647Z,21600.00
2022-10-19T12:21:05.667Z,20768.00
2022-10-19T12:22:06.267Z,19808.00
2022-10-19T12:23:14.895Z,22688.00
2022-10-19T12:24:05.607Z,22592.00
2022-10-19T12:25:05.586Z,20576.00
2022-10-19T12:26:05.644Z,20672.00
2022-10-19T12:27:07.066Z,21152.00
2022-10-19T12:28:05.769Z,22368.00
2022-10-19T12:29:05.548Z,23200.00
2022-10-19T12:30:06.317Z,23328.00
2022-10-19T12:31:05.591Z,22784.00
2022-10-19T12:32:05.559Z,22528.00
2022-10-19T12:33:05.503Z,22976.00
2022-10-19T12:34:05.525Z,23072.00
2022-10-19T12:35:05.569Z,22880.00
2022-10-19T12:36:05.489Z,20736.00
2022-10-19T12:37:05.494Z,20224.00
2022-10-19T12:38:05.477Z,20032.00
2022-10-19T12:39:05.491Z,21600.00